Time;durP1;ratioP1;P1;durP2;ratioP2;P2;SDS_P1;SDS_P2;PMS_P1;PMS_P2;Temp;Humidity;BMP_temperature;BMP_pressure;BME280_temperature;BME280_humidity;BME280_pressure;Samples;Min_cycle;Max_cycle;Signal;HPM_P1;HPM_P2
2023/04/21 00:01:22;;;;;;;;;;;9.50;95.00;;;9.80;62.12;98349.56;4970175;28;112537;-87
2023/04/21 00:04:03;;;;;;;;;;;9.50;95.00;;;9.80;62.10;98359.81;4983871;28;114821;-85
2023/04/21 00:06:31;;;;;;;;;;;9.60;95.00;;;9.78;62.17;98353.78;4984974;28;123005;-88
2023/04/21 00:08:58;;;;;;;;;;;9.50;95.00;;;9.77;62.01;98355.72;4974670;28;123590;-88
2023/04/21 00:11:25;;;;;;;;;;;9.50;95.00;;;9.76;62.27;98353.31;4971759;28;114826;-86
2023/04/21 00:13:53;;;;;;;;;;;9.50;95.00;;;9.74;62.54;98348.91;5000891;28;114785;-85
2023/04/21 00:16:51;;;;;;;;;;;9.50;95.00;;;9.71;62.49;98349.53;4985191;28;124032;-86
2023/04/21 00:19:44;;;;;;;;;;;9.50;95.00;;;9.68;62.75;98352.94;4999322;28;124704;-87
2023/04/21 00:22:30;;;;;;;;;;;9.50;95.00;;;9.66;62.36;98349.69;4999864;28;113571;-86
2023/04/21 00:24:57;;;;;;;;;;;9.50;95.10;;;9.62;62.65;98353.41;4989883;28;113754;-86
2023/04/21 00:27:49;;;;;;;;;;;9.40;95.10;;;9.56;62.87;98349.94;5003733;28;125055;-85
2023/04/21 00:30:58;;;;;;;;;;;9.40;95.20;;;9.47;63.20;98340.84;4963881;28;123645;-87
2023/04/21 00:33:49;;;;;;;;;;;9.30;95.30;;;9.39;63.30;98342.41;4998966;28;115230;-87
2023/04/21 00:40:40;;;;;;;;;;;9.30;95.30;;;9.42;63.81;98343.72;5005276;28;125225;-86
2023/04/21 00:44:15;;;;;;;;;;;9.20;95.40;;;9.42;63.75;98340.97;5002317;28;124709;-85
2023/04/21 00:47:21;;;;;;;;;;;10.60;95.50;;;9.40;63.41;98332.19;4983383;28;115331;-85
2023/04/21 00:50:28;;;;;;;;;;;9.20;95.50;;;9.35;64.20;98333.16;4997841;28;114561;-87
2023/04/21 00:56:52;;;;;;;;;;;9.20;95.80;;;9.14;64.66;98327.34;4984309;28;125003;-86
2023/04/21 01:07:22;;;;;;;;;;;9.00;96.20;;;8.90;65.76;98327.66;4987286;28;125229;-86
2023/04/21 01:10:39;;;;;;;;;;;7.00;95.50;;;8.88;65.86;98323.59;4981807;28;124732;-85
2023/04/21 01:13:39;;;;;;;;;;;8.80;96.30;;;8.93;65.55;98329.00;4977417;28;114974;-88
2023/04/21 01:16:23;;;;;;;;;;;8.80;96.70;;;8.96;65.35;98317.34;4946321;28;114361;-89
2023/04/21 01:19:42;;;;;;;;;;;8.80;96.70;;;8.99;65.24;98319.47;4977730;28;124003;-86
2023/04/21 01:26:48;;;;;;;;;;;7.80;95.90;;;8.98;65.18;98304.88;4983732;28;116178;-89
2023/04/21 01:31:48;;;;;;;;;;;8.90;96.40;;;9.06;65.12;98314.34;4974636;28;97571;-85
2023/04/21 01:34:28;;;;;;;;;;;8.80;96.30;;;9.09;65.03;98305.44;4948698;28;122489;-87
2023/04/21 01:37:07;;;;;;;;;;;8.90;96.40;;;9.10;65.03;98315.31;4953041;28;112648;-85
2023/04/21 01:39:42;;;;;;;;;;;8.90;96.40;;;9.15;64.49;98323.44;4933787;28;112336;-85
2023/04/21 01:42:27;;;;;;;;;;;8.80;96.30;;;9.13;64.85;98324.91;4963106;28;123490;-86
2023/04/21 01:44:57;;;;;;;;;;;8.90;96.30;;;9.15;64.78;98317.94;4951561;28;123165;-85
2023/04/21 01:47:24;;;;;;;;;;;8.90;96.30;;;9.17;64.64;98312.94;4944604;28;112184;-85
2023/04/21 01:50:04;;;;;;;;;;;8.90;96.30;;;9.18;64.64;98317.31;4944998;28;112818;-86
2023/04/21 01:52:42;;;;;;;;;;;8.90;96.20;;;9.19;64.33;98327.22;4944521;28;122725;-85
2023/04/21 01:55:13;;;;;;;;;;;9.00;96.20;;;9.15;64.31;98319.88;4943739;28;122618;-86
2023/04/21 01:58:17;;;;;;;;;;;8.90;96.10;;;9.13;64.22;98311.94;4945207;28;113152;-85
2023/04/21 02:00:44;;;;;;;;;;;8.90;96.10;;;9.13;64.15;98324.91;4962167;28;112124;-86
2023/04/21 02:03:11;;;;;;;;;;;8.90;96.30;;;9.10;64.41;98320.00;4945432;28;122468;-85
2023/04/21 02:06:08;;;;;;;;;;;8.90;96.10;;;9.11;64.52;98318.88;4957176;28;123428;-85
2023/04/21 02:09:21;;;;;;;;;;;8.80;96.00;;;9.09;64.08;98318.41;4944064;28;113859;-86
2023/04/21 02:12:12;;;;;;;;;;;8.90;96.10;;;9.07;64.11;98326.97;4959991;28;113450;-87
2023/04/21 02:15:04;;;;;;;;;;;8.80;96.00;;;9.05;63.89;98318.19;4944813;28;122946;-86
2023/04/21 02:17:32;;;;;;;;;;;8.80;96.00;;;9.04;64.12;98311.06;4965944;28;122561;-86
2023/04/21 02:19:58;;;;;;;;;;;8.80;96.00;;;9.04;64.04;98316.59;4961461;28;113547;-86
2023/04/21 02:22:24;;;;;;;;;;;8.80;96.10;;;9.06;64.01;98317.09;4962218;28;112105;-86
2023/04/21 02:24:51;;;;;;;;;;;8.80;96.20;;;9.06;63.89;98314.34;4958929;28;123420;-86
2023/04/21 02:27:18;;;;;;;;;;;8.80;96.00;;;9.00;63.68;98323.84;4938933;28;121902;-86
2023/04/21 02:29:44;;;;;;;;;;;8.80;96.10;;;8.94;63.90;98322.34;4910544;28;114036;-86
2023/04/21 02:32:13;;;;;;;;;;;7.00;95.10;;;8.91;64.10;98317.47;4911852;28;113535;-86
2023/04/21 02:35:00;;;;;;;;;;;8.70;95.70;;;8.90;63.82;98311.13;4907475;28;122334;-85
2023/04/21 02:37:39;;;;;;;;;;;8.80;95.80;;;8.90;63.64;98315.84;4938640;28;123229;-85
2023/04/21 02:40:08;;;;;;;;;;;8.60;95.70;;;8.87;63.64;98311.78;4924364;28;113606;-85
2023/04/21 02:42:52;;;;;;;;;;;8.70;95.70;;;8.88;64.07;98324.41;4906949;28;112001;-85
2023/04/21 02:45:20;;;;;;;;;;;8.60;95.70;;;8.87;63.60;98324.75;4923309;28;123487;-86
2023/04/21 02:47:54;;;;;;;;;;;8.60;95.70;;;8.89;63.75;98333.47;4922282;28;124827;-86
2023/04/21 02:50:58;;;;;;;;;;;8.70;95.80;;;8.90;63.55;98333.19;4904172;28;113868;-84
2023/04/21 02:53:43;;;;;;;;;;;8.60;95.70;;;8.88;63.66;98324.41;4924418;28;112155;-86
2023/04/21 02:56:34;;;;;;;;;;;8.60;95.70;;;8.87;63.66;98330.25;4930426;28;122438;-86
2023/04/21 02:59:06;;;;;;;;;;;10.70;96.10;;;8.87;63.64;98333.00;4899518;28;122692;-86
2023/04/21 03:01:32;;;;;;;;;;;8.80;95.80;;;8.88;63.45;98329.91;4921119;28;113588;-86
2023/04/21 03:03:59;;;;;;;;;;;8.70;95.90;;;8.87;63.35;98314.53;4937893;28;112983;-86
2023/04/21 03:09:48;;;;;;;;;;;8.60;95.70;;;8.83;63.56;98317.06;4925528;28;123944;-86
2023/04/21 03:12:14;;;;;;;;;;;6.70;95.10;;;8.81;63.29;98313.84;4908602;28;113563;-87
2023/04/21 03:15:28;;;;;;;;;;;8.60;95.70;;;8.80;63.22;98316.91;4912065;28;112690;-86
2023/04/21 03:17:55;;;;;;;;;;;8.50;95.50;;;8.77;63.23;98304.56;4858418;29;122560;-86
2023/04/21 03:20:40;;;;;;;;;;;8.60;95.60;;;8.76;63.26;98300.19;4830676;29;122408;-86
2023/04/21 03:23:08;;;;;;;;;;;8.50;95.50;;;8.77;63.44;98296.28;4826797;29;113106;-86
2023/04/21 03:25:45;;;;;;;;;;;8.40;95.40;;;8.77;63.08;98296.28;4812099;29;111927;-86
2023/04/21 03:28:33;;;;;;;;;;;10.30;95.80;;;8.76;63.24;98297.44;4808760;29;123337;-85
2023/04/21 03:31:01;;;;;;;;;;;8.50;95.40;;;8.72;63.23;98299.16;4829268;29;122408;-87
2023/04/21 03:33:29;;;;;;;;;;;8.40;95.40;;;8.73;63.40;98295.31;4812062;29;114154;-85
2023/04/21 03:35:55;;;;;;;;;;;8.50;95.40;;;8.75;63.21;98309.56;4797618;29;112143;-86
2023/04/21 03:38:22;;;;;;;;;;;8.40;95.50;;;8.73;63.07;98305.50;4796214;29;122954;-86
2023/04/21 03:40:55;;;;;;;;;;;8.40;95.70;;;8.77;63.01;98304.56;4814180;29;123553;-87
2023/04/21 03:43:34;;;;;;;;;;;8.50;95.40;;;8.74;62.97;98296.94;4831193;29;113060;-87
2023/04/21 03:46:07;;;;;;;;;;;8.30;95.40;;;8.75;63.04;98300.50;4821356;29;112386;-86
2023/04/21 03:48:45;;;;;;;;;;;8.50;95.50;;;8.75;63.08;98301.28;4791973;29;122798;-85
2023/04/21 03:51:27;;;;;;;;;;;8.50;95.40;;;8.76;63.26;98294.69;4797406;29;123253;-86
2023/04/21 03:53:58;;;;;;;;;;;8.40;95.40;;;8.75;63.09;98304.06;4796897;28;115179;-87
2023/04/21 03:56:31;;;;;;;;;;;8.50;95.40;;;8.76;63.23;98305.69;4895901;28;113679;-86
2023/04/21 03:58:58;;;;;;;;;;;8.50;95.40;;;8.76;62.96;98311.22;4894985;28;122835;-86
2023/04/21 04:01:24;;;;;;;;;;;8.50;95.60;;;8.77;63.05;98314.78;4875682;28;123739;-87
2023/04/21 04:04:14;;;;;;;;;;;10.80;95.90;;;8.76;63.03;98316.72;4878104;28;112872;-87
2023/04/21 04:06:41;;;;;;;;;;;8.50;95.40;;;8.74;63.04;98307.94;4882855;28;112473;-86
2023/04/21 04:09:17;;;;;;;;;;;8.50;95.50;;;8.74;62.82;98307.13;4887429;28;123930;-84
2023/04/21 04:11:45;;;;;;;;;;;8.40;95.30;;;8.73;62.68;98306.31;4860059;28;122335;-87
2023/04/21 04:14:23;;;;;;;;;;;8.50;95.30;;;8.73;62.92;98317.34;4874572;28;113964;-86
2023/04/21 04:16:51;;;;;;;;;;;8.50;95.30;;;8.72;62.78;98314.88;4883517;28;112503;-85
2023/04/21 04:19:41;;;;;;;;;;;8.40;95.20;;;8.70;62.92;98317.13;4908375;28;123005;-86
2023/04/21 04:22:07;;;;;;;;;;;8.40;95.20;;;8.69;62.82;98321.03;4944088;28;122685;-86
2023/04/21 04:24:44;;;;;;;;;;;8.40;95.50;;;8.67;62.85;98318.56;4942593;28;113700;-86
2023/04/21 04:27:13;;;;;;;;;;;8.40;95.20;;;8.63;63.22;98310.13;4927233;28;112145;-86
2023/04/21 04:29:39;;;;;;;;;;;8.40;95.20;;;8.64;62.58;98319.19;4921850;28;123797;-87
2023/04/21 04:32:09;;;;;;;;;;;10.60;96.00;;;8.59;62.98;98317.38;4923715;28;123493;-86
2023/04/21 04:35:01;;;;;;;;;;;8.40;95.30;;;8.61;62.95;98320.63;4939429;28;112950;-86
2023/04/21 04:37:56;;;;;;;;;;;8.30;95.30;;;8.60;63.22;98309.94;4941161;28;112276;-87
2023/04/21 04:40:32;;;;;;;;;;;8.50;95.40;;;8.58;63.28;98309.44;4933801;28;122711;-86
2023/04/21 04:42:58;;;;;;;;;;;8.40;95.40;;;8.58;63.18;98320.44;4919280;28;122432;-85
2023/04/21 04:45:31;;;;;;;;;;;8.40;95.50;;;8.61;63.24;98326.16;4942542;28;114014;-86
2023/04/21 04:48:07;;;;;;;;;;;8.30;95.40;;;8.60;63.22;98312.69;4939490;28;113256;-86
2023/04/21 04:50:50;;;;;;;;;;;8.40;95.50;;;8.62;63.72;98315.94;4921558;28;122752;-85
2023/04/21 04:53:37;;;;;;;;;;;8.40;95.60;;;8.62;63.44;98315.94;4930445;28;122130;-86
2023/04/21 04:56:06;;;;;;;;;;;8.40;95.60;;;8.63;63.49;98320.34;4927710;28;112957;-87
2023/04/21 04:58:33;;;;;;;;;;;8.30;95.60;;;8.58;63.82;98329.53;4923851;28;112180;-87
2023/04/21 05:01:10;;;;;;;;;;;8.40;95.70;;;8.56;63.67;98336.47;4930183;28;123652;-87
2023/04/21 05:03:39;;;;;;;;;;;10.50;96.20;;;8.55;63.95;98334.84;4918292;28;122549;-88
2023/04/21 05:06:07;;;;;;;;;;;8.30;95.80;;;8.51;63.81;98336.56;4922536;28;112972;-86
2023/04/21 05:08:33;;;;;;;;;;;8.30;95.80;;;8.47;64.38;98339.16;4918681;28;111913;-87
2023/04/21 05:11:00;;;;;;;;;;;10.30;96.40;;;8.45;63.87;98348.84;4916994;28;122721;-87
2023/04/21 05:13:26;;;;;;;;;;;8.20;95.90;;;8.42;64.20;98361.28;4938510;28;122441;-87
2023/04/21 05:16:02;;;;;;;;;;;8.20;96.10;;;8.40;64.29;98358.81;4924394;28;112654;-87
2023/04/21 05:18:29;;;;;;;;;;;7.70;95.70;;;8.47;64.41;98354.84;4930892;28;112441;-87
2023/04/21 05:21:00;;;;;;;;;;;8.20;96.10;;;8.50;65.18;98348.72;4929329;28;122586;-87
2023/04/21 05:23:32;;;;;;;;;;;8.20;96.10;;;8.58;65.11;98354.31;4925996;28;122102;-89
2023/04/21 05:26:09;;;;;;;;;;;8.30;96.40;;;8.68;65.35;98363.44;4925019;28;112936;-87
2023/04/21 05:28:47;;;;;;;;;;;8.30;96.80;;;8.70;65.33;98367.50;4908436;28;113111;-87
2023/04/21 05:31:27;;;;;;;;;;;8.40;96.70;;;8.77;65.26;98364.34;4921061;28;121976;-88
2023/04/21 05:33:54;;;;;;;;;;;8.40;96.80;;;8.80;65.21;98359.03;4918155;28;122200;-88
2023/04/21 05:36:23;;;;;;;;;;;8.50;96.80;;;8.85;65.12;98367.16;4921042;28;113660;-88
2023/04/21 05:38:59;;;;;;;;;;;8.50;96.70;;;8.88;64.78;98367.69;4934662;28;115090;-87
2023/04/21 05:41:31;;;;;;;;;;;8.50;96.70;;;8.87;64.64;98377.06;4919200;28;123354;-87
2023/04/21 05:43:59;;;;;;;;;;;8.50;96.60;;;8.84;64.98;98373.00;4930055;28;123877;-86
2023/04/21 05:46:33;;;;;;;;;;;8.50;96.50;;;8.83;64.80;98366.66;4923908;28;113896;-88
2023/04/21 05:49:15;;;;;;;;;;;8.50;96.50;;;8.78;64.56;98371.47;4920212;28;113462;-88
2023/04/21 05:51:47;;;;;;;;;;;7.30;96.00;;;8.77;64.79;98370.66;4924290;28;123967;-87
2023/04/21 05:57:37;;;;;;;;;;;8.50;96.40;;;8.79;64.66;98353.84;4936701;28;114555;-87
2023/04/21 06:00:04;;;;;;;;;;;8.50;96.40;;;8.77;64.91;98348.63;4918314;28;113053;-86
2023/04/21 06:02:36;;;;;;;;;;;8.50;96.50;;;8.76;64.61;98344.25;4920717;28;123370;-86
2023/04/21 06:05:03;;;;;;;;;;;8.60;96.50;;;8.81;65.06;98346.06;4933597;28;122435;-88
2023/04/21 06:07:32;;;;;;;;;;;8.60;96.50;;;8.81;65.22;98343.31;4924308;28;113690;-88
2023/04/21 06:09:58;;;;;;;;;;;8.50;96.60;;;8.77;65.26;98334.06;4909804;28;113144;-87
2023/04/21 06:12:25;;;;;;;;;;;8.50;96.70;;;8.75;65.27;98328.84;4937313;28;122460;-88
2023/04/21 06:14:56;;;;;;;;;;;8.50;96.70;;;8.75;65.29;98348.13;4937777;28;123691;-88
2023/04/21 06:17:22;;;;;;;;;;;8.50;96.80;;;8.75;65.63;98331.59;4923547;28;112513;-87
2023/04/21 06:19:58;;;;;;;;;;;8.60;96.90;;;8.84;65.18;98327.00;4966866;28;112980;-89
2023/04/21 06:22:33;;;;;;;;;;;7.80;96.50;;;8.94;65.04;98328.66;4932754;28;122314;-90
2023/04/21 06:24:59;;;;;;;;;;;8.60;96.80;;;8.98;65.45;98343.44;4941784;28;122585;-88
2023/04/21 06:27:30;;;;;;;;;;;8.60;97.00;;;9.03;65.18;98348.03;4939668;28;115026;-89
2023/04/21 06:30:02;;;;;;;;;;;8.70;97.00;;;9.05;65.27;98340.25;4943100;28;114710;-89
2023/04/21 06:32:33;;;;;;;;;;;6.70;96.20;;;9.12;64.96;98335.09;4925212;28;123272;-87
2023/04/21 06:34:59;;;;;;;;;;;8.80;96.90;;;9.18;65.25;98338.56;4918680;28;122120;-86
2023/04/21 06:37:26;;;;;;;;;;;8.80;97.10;;;9.27;65.29;98343.00;4915488;28;114236;-86
2023/04/21 06:39:54;;;;;;;;;;;8.90;97.20;;;9.36;65.45;98345.78;4909660;28;111758;-75
2023/04/21 06:42:21;;;;;;;;;;;9.00;97.40;;;9.54;66.14;98352.22;4930232;28;123873;-77
2023/04/21 06:44:47;;;;;;;;;;;9.10;97.90;;;9.73;66.45;98341.78;4923160;28;123862;-75
2023/04/21 06:47:15;;;;;;;;;;;9.20;98.10;;;9.84;65.64;98341.50;4930087;28;114714;-75
2023/04/21 06:49:44;;;;;;;;;;;9.30;98.00;;;9.94;65.66;98332.94;4928393;28;113860;-73
2023/04/21 06:52:13;;;;;;;;;;;9.40;98.10;;;10.05;65.67;98338.97;4929767;28;124888;-74
2023/04/21 06:54:41;;;;;;;;;;;9.40;98.10;;;10.16;65.65;98335.59;4929636;28;124099;-76
2023/04/21 06:57:08;;;;;;;;;;;9.50;98.00;;;10.28;65.63;98334.16;4930228;28;114983;-74
2023/04/21 06:59:34;;;;;;;;;;;9.60;98.10;;;10.41;65.32;98327.69;4928280;28;113562;-74
2023/04/21 07:02:00;;;;;;;;;;;9.70;98.20;;;10.51;64.95;98323.81;4914808;28;123397;-74
2023/04/21 07:04:28;;;;;;;;;;;9.80;97.90;;;10.48;63.30;98328.03;4929123;28;124028;-75
2023/04/21 07:06:59;;;;;;;;;;;9.80;97.20;;;10.46;63.25;98327.53;4924175;28;114350;-79
2023/04/21 07:09:27;;;;;;;;;;;9.90;97.20;;;10.53;64.22;98325.13;4926545;28;113948;-73
2023/04/21 07:11:54;;;;;;;;;;;9.90;97.30;;;10.65;63.96;98324.47;4933175;28;124037;-74
2023/04/21 07:14:20;;;;;;;;;;;10.00;96.80;;;10.70;63.08;98327.06;4915929;28;124588;-74
2023/04/21 07:16:49;;;;;;;;;;;10.10;96.50;;;10.73;62.49;98322.84;4913474;28;115412;-75
2023/04/21 07:19:15;;;;;;;;;;;10.10;96.10;;;10.58;62.02;98322.16;4922027;28;114984;-81
2023/04/21 07:22:07;;;;;;;;;;;10.00;95.80;;;10.51;62.59;98323.81;4918161;28;124476;-84
2023/04/21 07:24:34;;;;;;;;;;;10.00;95.90;;;10.50;62.33;98314.69;4917301;28;123688;-83
2023/04/21 07:27:01;;;;;;;;;;;10.00;95.80;;;10.51;62.44;98316.34;4918777;28;114391;-82
2023/04/21 07:29:28;;;;;;;;;;;10.00;95.80;;;10.51;62.32;98313.56;4919653;28;113937;-82
2023/04/21 07:31:55;;;;;;;;;;;10.00;95.60;;;10.47;62.24;98311.78;4923743;28;124174;-80
2023/04/21 07:34:21;;;;;;;;;;;10.00;95.60;;;10.47;62.21;98311.78;4925148;28;124046;-80
2023/04/21 07:36:47;;;;;;;;;;;10.10;95.60;;;10.50;62.48;98309.16;4937701;28;114067;-80
2023/04/21 07:39:14;;;;;;;;;;;10.10;95.50;;;10.51;62.12;98305.28;4925058;28;112794;-83
2023/04/21 07:41:40;;;;;;;;;;;10.10;95.60;;;10.54;62.09;98301.06;4929575;28;124608;-82
2023/04/21 07:44:06;;;;;;;;;;;10.20;95.40;;;10.61;61.71;98310.50;4931559;28;124353;-79
2023/04/21 07:46:32;;;;;;;;;;;10.20;95.30;;;10.68;61.63;98306.44;4929656;28;114159;-84
2023/04/21 07:48:59;;;;;;;;;;;10.30;95.30;;;10.79;61.36;98302.19;4930015;28;112963;-81
2023/04/21 07:51:30;;;;;;;;;;;10.30;95.50;;;10.88;61.38;98305.78;4929076;28;124407;-81
2023/04/21 07:53:57;;;;;;;;;;;10.40;95.20;;;10.94;61.28;98304.47;4929318;28;124725;-82
2023/04/21 07:56:23;;;;;;;;;;;10.40;95.10;;;10.97;60.48;98303.00;4928986;28;114375;-83
2023/04/21 07:58:50;;;;;;;;;;;10.50;94.90;;;11.03;60.72;98302.50;4930006;28;113718;-81
2023/04/21 08:01:19;;;;;;;;;;;10.60;95.00;;;11.13;60.38;98306.06;4915486;28;124189;-84
2023/04/21 08:03:46;;;;;;;;;;;10.60;94.80;;;11.17;60.02;98295.97;4919403;28;124051;-84
2023/04/21 08:06:13;;;;;;;;;;;10.60;94.80;;;11.27;60.39;98296.41;4928456;28;115077;-85
2023/04/21 08:08:40;;;;;;;;;;;10.70;94.80;;;11.40;60.70;98291.03;4930256;28;113825;-84
2023/04/21 08:11:06;;;;;;;;;;;10.80;94.90;;;11.55;60.12;98286.88;4932095;28;123386;-83
2023/04/21 08:13:32;;;;;;;;;;;10.90;94.80;;;11.68;59.42;98294.16;4931720;28;123312;-83
2023/04/21 08:15:58;;;;;;;;;;;11.00;94.70;;;11.73;58.82;98291.22;4932210;28;115433;-85
2023/04/21 08:18:25;;;;;;;;;;;11.20;94.20;;;11.82;59.09;98294.78;4931783;28;113341;-81
2023/04/21 08:20:52;;;;;;;;;;;11.20;94.20;;;11.92;59.05;98288.84;4928949;28;123993;-85
2023/04/21 08:23:18;;;;;;;;;;;11.30;94.30;;;12.01;58.67;98283.31;4921486;28;124165;-85
2023/04/21 08:25:46;;;;;;;;;;;11.40;94.20;;;12.09;58.20;98281.59;4924002;28;114218;-82
2023/04/21 08:28:14;;;;;;;;;;;11.50;94.20;;;12.18;57.99;98279.59;4928604;28;113940;-85
2023/04/21 08:30:40;;;;;;;;;;;11.50;93.90;;;12.27;57.84;98287.84;4927015;28;124173;-84
2023/04/21 08:33:12;;;;;;;;;;;11.60;93.90;;;12.31;57.98;98289.63;4929244;28;124063;-81
2023/04/21 08:35:41;;;;;;;;;;;11.70;93.80;;;12.36;57.19;98280.31;4928422;28;114479;-80
2023/04/21 08:38:08;;;;;;;;;;;11.70;93.40;;;12.34;56.99;98275.09;4929447;28;114042;-82
2023/04/21 08:40:37;;;;;;;;;;;11.80;93.40;;;12.34;57.27;98275.09;4941832;28;124043;-84
2023/04/21 08:43:05;;;;;;;;;;;11.80;93.40;;;12.36;57.06;98270.03;4926151;28;123295;-86
2023/04/21 08:45:32;;;;;;;;;;;11.70;93.20;;;12.37;57.20;98268.88;4931589;28;113695;-84
2023/04/21 08:48:00;;;;;;;;;;;11.80;93.30;;;12.45;57.32;98274.69;4948528;28;113053;-86
2023/04/21 08:50:28;;;;;;;;;;;11.80;93.40;;;12.51;56.82;98279.69;4934308;28;123403;-86
2023/04/21 08:52:55;;;;;;;;;;;11.90;93.20;;;12.54;56.89;98281.78;4935020;28;123926;-84
2023/04/21 08:55:29;;;;;;;;;;;11.90;93.30;;;12.60;57.13;98274.09;4934973;28;114485;-85
2023/04/21 08:57:56;;;;;;;;;;;12.00;93.30;;;12.63;56.72;98269.81;4934895;28;114377;-82
2023/04/21 09:00:22;;;;;;;;;;;12.10;93.10;;;12.65;56.81;98276.63;4930870;28;124120;-82
2023/04/21 09:02:59;;;;;;;;;;;12.10;93.00;;;12.70;56.81;98278.38;4930853;28;123141;-84
2023/04/21 09:05:27;;;;;;;;;;;12.10;93.00;;;12.72;56.22;98276.91;4950080;28;113843;-81
2023/04/21 09:08:07;;;;;;;;;;;12.20;93.00;;;12.78;56.56;98275.53;4928908;28;113695;-84
2023/04/21 09:10:41;;;;;;;;;;;10.50;92.20;;;12.87;56.77;98271.88;4923240;28;124402;-82
2023/04/21 09:13:09;;;;;;;;;;;12.30;93.00;;;12.93;56.51;98270.53;4931580;28;124809;-84
2023/04/21 09:15:44;;;;;;;;;;;12.40;93.00;;;13.00;56.39;98265.22;4929629;28;114389;-79
2023/04/21 09:18:19;;;;;;;;;;;12.40;92.90;;;13.07;56.34;98262.72;4931561;28;113795;-85
2023/04/21 09:20:47;;;;;;;;;;;12.50;93.00;;;13.15;56.39;98255.47;4928022;28;125573;-85
2023/04/21 09:23:13;;;;;;;;;;;12.60;93.00;;;13.20;56.14;98260.78;4933064;28;123823;-86
2023/04/21 09:25:42;;;;;;;;;;;12.60;92.80;;;13.22;55.72;98256.53;4930323;28;113791;-85
2023/04/21 09:28:13;;;;;;;;;;;12.60;92.60;;;13.21;55.76;98256.84;4924824;28;114359;-83
2023/04/21 09:30:41;;;;;;;;;;;12.60;92.60;;;13.22;56.01;98250.97;4914675;28;125274;-84
2023/04/21 09:33:15;;;;;;;;;;;12.70;92.70;;;13.25;56.34;98250.28;4916736;28;123925;-85
2023/04/21 09:35:44;;;;;;;;;;;12.80;92.70;;;13.29;56.01;98249.63;4926207;28;115027;-84
2023/04/21 09:38:11;;;;;;;;;;;12.80;92.60;;;13.31;56.16;98247.31;4929238;28;114722;-83
2023/04/21 09:40:39;;;;;;;;;;;12.90;92.70;;;13.36;55.76;98242.34;4931020;28;124337;-82
2023/04/21 09:43:06;;;;;;;;;;;12.90;92.60;;;13.40;55.77;98250.78;4932239;28;124509;-85
2023/04/21 09:45:32;;;;;;;;;;;12.90;92.50;;;13.44;55.69;98246.19;4932598;28;114930;-78
2023/04/21 09:48:00;;;;;;;;;;;13.00;92.50;;;13.45;55.47;98245.00;4919844;28;115061;-81
2023/04/21 09:50:28;;;;;;;;;;;13.00;92.30;;;13.45;55.42;98242.25;4923783;28;124443;-85
2023/04/21 09:52:55;;;;;;;;;;;13.00;92.30;;;13.50;55.50;98238.44;4929954;28;124596;-79
2023/04/21 09:55:25;;;;;;;;;;;13.00;92.30;;;13.57;55.83;98244.25;4921543;28;114873;-82
2023/04/21 09:57:58;;;;;;;;;;;13.20;92.40;;;13.62;55.63;98247.59;4919797;28;113745;-84
2023/04/21 10:00:27;;;;;;;;;;;13.20;92.40;;;13.69;55.65;98241.44;4920361;28;124270;-86
2023/04/21 10:02:56;;;;;;;;;;;13.20;92.40;;;13.70;55.45;98224.47;4931680;28;123890;-79
2023/04/21 10:05:23;;;;;;;;;;;13.30;92.20;;;13.75;55.56;98228.94;4905909;28;114047;-82
2023/04/21 10:07:49;;;;;;;;;;;13.30;92.30;;;13.82;55.48;98222.81;4927355;28;113921;-80
2023/04/21 10:10:23;;;;;;;;;;;13.40;92.30;;;13.88;55.61;98230.56;4904044;28;124176;-77
2023/04/21 10:12:50;;;;;;;;;;;13.50;92.30;;;13.93;55.13;98210.09;4927153;28;123156;-79
2023/04/21 10:15:28;;;;;;;;;;;13.50;92.10;;;14.01;54.91;98206.38;4922721;28;113971;-80
2023/04/21 10:18:10;;;;;;;;;;;13.60;92.20;;;14.06;54.90;98199.78;4923876;28;113822;-79
2023/04/21 10:21:05;;;;;;;;;;;13.60;91.90;;;14.14;54.58;98205.19;4931195;28;124326;-77
2023/04/21 10:23:36;;;;;;;;;;;13.70;92.00;;;14.22;54.77;98197.88;4930803;28;124019;-81
2023/04/21 10:26:12;;;;;;;;;;;13.70;92.10;;;14.33;54.45;98192.63;4924589;28;115101;-77
2023/04/21 10:28:42;;;;;;;;;;;13.80;92.00;;;14.40;54.23;98200.34;4917455;28;113216;-79
2023/04/21 10:31:18;;;;;;;;;;;13.90;91.90;;;14.49;54.41;98201.03;4929142;28;124375;-78
2023/04/21 10:34:06;;;;;;;;;;;13.90;92.00;;;14.56;54.56;98202.09;4922978;28;125081;-78
2023/04/21 10:36:44;;;;;;;;;;;14.00;92.10;;;14.66;54.97;98197.16;4921146;28;115601;-79
2023/04/21 10:39:24;;;;;;;;;;;14.10;92.30;;;14.76;54.36;98188.31;4928212;28;114580;-80
2023/04/21 10:41:51;;;;;;;;;;;14.20;92.10;;;14.82;54.14;98189.69;4918871;28;124188;-78
2023/04/21 10:44:17;;;;;;;;;;;14.30;92.00;;;14.84;53.59;98198.47;4931584;28;123661;-80
2023/04/21 10:46:51;;;;;;;;;;;14.30;91.50;;;14.86;53.71;98192.56;4931797;28;113934;-80
2023/04/21 10:49:24;;;;;;;;;;;14.40;91.50;;;14.90;53.72;98194.25;4929899;28;114189;-77
2023/04/21 10:52:01;;;;;;;;;;;14.50;91.50;;;14.98;53.87;98187.72;4921765;28;125087;-79
2023/04/21 10:54:46;;;;;;;;;;;14.50;91.60;;;15.07;53.29;98186.75;4917359;28;124038;-79
2023/04/21 10:57:33;;;;;;;;;;;14.60;91.40;;;15.17;53.34;98186.22;4931918;28;114678;-78
2023/04/21 11:00:00;;;;;;;;;;;14.70;91.50;;;15.25;53.20;98188.03;4935316;28;113768;-86
2023/04/21 11:02:26;;;;;;;;;;;14.80;91.30;;;15.33;52.85;98184.25;4939861;28;122766;-79
2023/04/21 11:04:53;;;;;;;;;;;14.80;91.60;;;15.43;52.83;98177.34;4933529;28;124501;-85
2023/04/21 11:07:21;;;;;;;;;;;14.90;91.40;;;15.48;52.72;98179.06;4932715;28;114810;-84
2023/04/21 11:09:56;;;;;;;;;;;15.00;91.20;;;15.59;52.89;98182.91;4930980;28;113749;-81
2023/04/21 11:12:26;;;;;;;;;;;15.00;91.30;;;15.67;52.87;98176.34;4928577;28;124428;-78
2023/04/21 11:14:52;;;;;;;;;;;15.10;91.30;;;15.75;52.41;98178.16;4922771;28;124768;-82
2023/04/21 11:17:20;;;;;;;;;;;15.20;91.20;;;15.84;52.95;98166.81;4930010;28;114621;-81
2023/04/21 11:19:50;;;;;;;;;;;15.40;91.30;;;15.97;53.00;98167.50;4919954;28;113780;-85
2023/04/21 11:22:17;;;;;;;;;;;15.50;91.50;;;16.10;52.39;98164.22;4929333;28;123914;-82
2023/04/21 11:24:52;;;;;;;;;;;15.60;91.20;;;16.24;51.87;98172.06;4947518;28;123331;-83
2023/04/21 11:27:18;;;;;;;;;;;14.10;90.30;;;16.39;51.95;98162.06;4930424;28;115582;-83
2023/04/21 11:29:45;;;;;;;;;;;15.80;91.00;;;16.52;51.68;98155.16;4932437;28;114254;-84
2023/04/21 11:32:12;;;;;;;;;;;15.20;90.60;;;16.68;51.50;98157.03;4932112;28;124626;-82
2023/04/21 11:34:39;;;;;;;;;;;16.10;90.90;;;16.85;51.24;98155.81;4928969;28;124255;-82
2023/04/21 11:37:15;;;;;;;;;;;16.20;90.80;;;16.97;50.57;98158.41;4929850;28;114636;-83
2023/04/21 11:39:43;;;;;;;;;;;16.40;90.30;;;17.07;50.25;98155.00;4929916;28;113887;-81
2023/04/21 11:42:10;;;;;;;;;;;17.90;90.80;;;17.18;49.78;98150.41;4931792;28;124970;-81
2023/04/21 11:44:42;;;;;;;;;;;16.60;90.10;;;17.31;49.60;98148.25;4923843;28;124242;-79
2023/04/21 11:47:36;;;;;;;;;;;16.70;89.80;;;17.44;49.31;98135.69;4928705;28;114488;-82
2023/04/21 11:50:03;;;;;;;;;;;17.30;90.00;;;17.57;48.99;98136.31;4932035;28;113820;-81
2023/04/21 11:52:36;;;;;;;;;;;17.00;89.20;;;17.71;48.95;98134.91;4947195;28;123573;-85
2023/04/21 11:55:05;;;;;;;;;;;17.10;89.00;;;17.85;48.34;98123.97;4937998;28;124132;-80
2023/04/21 11:57:32;;;;;;;;;;;17.20;88.20;;;17.94;48.12;98138.44;4926952;28;114189;-81
2023/04/21 12:00:05;;;;;;;;;;;17.30;87.70;;;18.05;47.96;98128.25;4921557;28;115860;-81
2023/04/21 12:02:32;;;;;;;;;;;17.40;87.90;;;18.18;47.94;98125.19;4928623;28;123928;-82
2023/04/21 12:05:09;;;;;;;;;;;17.60;87.80;;;18.32;47.01;98126.19;4929291;28;125528;-79
2023/04/21 12:07:47;;;;;;;;;;;17.70;86.80;;;18.38;46.88;98118.28;4929663;28;114325;-82
2023/04/21 12:10:16;;;;;;;;;;;17.80;86.20;;;18.44;46.92;98122.34;4917767;28;113821;-84
2023/04/21 12:12:42;;;;;;;;;;;18.00;86.40;;;18.55;46.51;98131.66;4928191;28;124376;-84
2023/04/21 12:15:11;;;;;;;;;;;18.00;85.80;;;18.66;46.34;98119.78;4928658;28;123843;-83